createdAt,value
2018-06-22T00:01:00.672Z,98.03
2018-06-22T00:03:30.206Z,97.98
2018-06-22T00:05:59.742Z,98.26
2018-06-22T00:08:29.220Z,97.93
2018-06-22T00:10:59.156Z,98.02
2018-06-22T00:13:28.542Z,97.56
2018-06-22T00:15:57.985Z,97.52
2018-06-22T00:18:27.120Z,97.61
2018-06-22T00:20:56.658Z,97.23
2018-06-22T00:23:26.060Z,97.53
2018-06-22T00:25:55.624Z,97.65
2018-06-22T00:28:25.163Z,97.72
2018-06-22T00:30:54.594Z,97.49
2018-06-22T00:33:24.051Z,97.94
2018-06-22T00:35:53.677Z,98.08
2018-06-22T00:38:23.109Z,97.51
2018-06-22T00:40:52.553Z,97.23
2018-06-22T00:43:22.008Z,97.83
2018-06-22T00:45:51.493Z,97.93
2018-06-22T00:48:20.898Z,97.59
2018-06-22T00:50:50.320Z,97.37
2018-06-22T00:53:36.717Z,97.39
2018-06-22T00:56:06.168Z,97.72
2018-06-22T00:58:35.366Z,98.06
2018-06-22T01:01:05.819Z,97.82
2018-06-22T01:03:35.254Z,98.19
2018-06-22T01:06:05.435Z,98.03
2018-06-22T01:08:34.897Z,97.99
2018-06-22T01:11:04.838Z,98.04
2018-06-22T01:13:34.257Z,98.51
2018-06-22T01:16:03.420Z,97.88
2018-06-22T01:18:32.896Z,98.14
2018-06-22T01:21:02.652Z,98.70
2018-06-22T01:23:32.793Z,97.85
2018-06-22T01:26:01.933Z,98.74
2018-06-22T01:28:31.765Z,98.42
2018-06-22T01:31:01.186Z,98.49
2018-06-22T01:33:31.204Z,98.07
2018-06-22T01:36:00.648Z,98.04
2018-06-22T01:38:30.538Z,98.61
2018-06-22T01:40:59.731Z,98.50
2018-06-22T01:43:29.230Z,98.64
2018-06-22T01:45:59.186Z,98.54
2018-06-22T01:48:29.527Z,98.76
2018-06-22T01:50:59.664Z,98.65
2018-06-22T01:53:29.673Z,98.57
2018-06-22T01:55:59.207Z,98.73
2018-06-22T01:58:29.330Z,98.89
2018-06-22T02:01:00.344Z,98.42
2018-06-22T02:03:29.769Z,98.23
2018-06-22T02:05:59.604Z,98.41
2018-06-22T02:08:29.019Z,98.00
2018-06-22T02:10:58.509Z,98.24
2018-06-22T02:13:28.179Z,98.57
2018-06-22T02:15:58.024Z,98.38
2018-06-22T02:18:27.491Z,98.02
2018-06-22T02:20:56.967Z,98.33
2018-06-22T02:23:26.557Z,98.24
2018-06-22T02:25:56.023Z,98.33
2018-06-22T02:28:25.982Z,98.37
2018-06-22T02:30:55.513Z,97.94
2018-06-22T02:33:24.948Z,98.18
2018-06-22T02:35:54.548Z,98.23
2018-06-22T02:38:24.170Z,98.49
2018-06-22T02:40:53.749Z,98.21
2018-06-22T02:43:23.232Z,98.26
2018-06-22T02:45:52.686Z,98.04
2018-06-22T02:48:23.155Z,98.16
2018-06-22T02:50:52.592Z,98.29
2018-06-22T02:53:22.085Z,98.28
2018-06-22T02:55:51.538Z,98.50
2018-06-22T02:58:20.976Z,98.32
2018-06-22T03:00:50.818Z,97.99
2018-06-22T03:03:20.364Z,98.65
2018-06-22T03:05:49.812Z,98.44
2018-06-22T03:08:19.226Z,98.05
2018-06-22T03:10:48.719Z,97.97
2018-06-22T03:13:18.118Z,98.11
2018-06-22T03:15:47.879Z,98.15
2018-06-22T03:18:17.343Z,98.54
2018-06-22T03:20:47.217Z,98.36
2018-06-22T03:23:16.689Z,98.49
2018-06-22T03:25:46.119Z,98.50
2018-06-22T03:28:15.706Z,98.41
2018-06-22T03:30:45.161Z,98.07
2018-06-22T03:33:14.937Z,98.31
2018-06-22T03:35:44.444Z,98.43
2018-06-22T03:38:13.919Z,98.56
2018-06-22T03:40:43.410Z,98.43
2018-06-22T03:43:12.862Z,98.37
2018-06-22T03:45:42.359Z,98.36
2018-06-22T03:48:11.810Z,98.50
2018-06-22T03:50:41.401Z,98.57
2018-06-22T03:53:10.977Z,98.29
2018-06-22T03:55:40.548Z,98.46
2018-06-22T03:58:09.977Z,98.41
2018-06-22T04:00:39.368Z,98.57
2018-06-22T04:03:09.013Z,98.92
2018-06-22T04:05:38.523Z,98.68
2018-06-22T04:08:08.201Z,98.73
2018-06-22T04:10:37.868Z,98.71
2018-06-22T04:13:07.361Z,98.11
2018-06-22T04:15:36.900Z,98.55
2018-06-22T04:18:07.096Z,98.34
2018-06-22T04:20:36.579Z,98.87
2018-06-22T04:23:06.097Z,98.70
2018-06-22T04:25:35.826Z,98.51
2018-06-22T04:28:05.407Z,98.64
2018-06-22T04:30:34.850Z,98.49
2018-06-22T04:33:04.431Z,98.77
2018-06-22T04:35:34.746Z,98.24
2018-06-22T04:38:04.287Z,98.30
2018-06-22T04:40:34.380Z,97.93
2018-06-22T04:43:04.987Z,97.61
2018-06-22T04:45:34.919Z,96.69
2018-06-22T04:48:05.417Z,96.51
2018-06-22T04:50:34.752Z,96.86
2018-06-22T04:53:04.917Z,97.02
2018-06-22T04:55:34.538Z,96.86
2018-06-22T04:58:04.017Z,97.05
2018-06-22T05:00:33.545Z,97.20
2018-06-22T05:03:03.439Z,96.50
2018-06-22T05:05:32.962Z,96.96
2018-06-22T05:08:02.460Z,97.07
2018-06-22T05:10:32.041Z,97.07
2018-06-22T05:13:03.652Z,96.88
2018-06-22T05:15:33.078Z,96.90
2018-06-22T05:18:03.575Z,97.11
2018-06-22T05:20:33.168Z,97.57
2018-06-22T05:23:02.737Z,96.83
2018-06-22T05:25:32.360Z,96.86
2018-06-22T05:28:01.898Z,96.58
2018-06-22T05:30:32.610Z,96.65
2018-06-22T05:33:03.059Z,96.00
2018-06-22T05:35:32.728Z,95.67
2018-06-22T05:38:02.169Z,95.95
2018-06-22T05:40:31.944Z,94.94
2018-06-22T05:43:01.415Z,94.81
2018-06-22T05:45:31.059Z,95.43
2018-06-22T05:48:00.621Z,95.77
2018-06-22T05:50:31.097Z,95.51
2018-06-22T05:53:01.522Z,95.62
2018-06-22T05:55:31.457Z,95.35
2018-06-22T05:58:02.625Z,95.91
2018-06-22T06:00:33.552Z,95.59
2018-06-22T06:03:03.793Z,95.04
2018-06-22T06:05:35.010Z,94.22
2018-06-22T06:08:04.546Z,94.93
2018-06-22T06:10:33.976Z,94.95
2018-06-22T06:13:03.139Z,95.66
2018-06-22T06:15:33.450Z,95.22
2018-06-22T06:18:02.941Z,95.89
2018-06-22T06:20:33.520Z,96.29
2018-06-22T06:23:02.982Z,96.58
2018-06-22T06:25:32.516Z,96.32
2018-06-22T06:28:02.010Z,97.00
2018-06-22T06:30:32.866Z,96.82
2018-06-22T06:33:02.354Z,95.83
2018-06-22T06:35:31.854Z,96.93
2018-06-22T06:38:01.401Z,96.83
2018-06-22T06:40:30.870Z,96.92
2018-06-22T06:43:00.970Z,96.73
2018-06-22T06:45:30.531Z,97.22
2018-06-22T06:48:00.115Z,97.50
2018-06-22T06:50:31.733Z,96.90
2018-06-22T06:53:01.559Z,97.32
2018-06-22T06:55:31.328Z,96.89
2018-06-22T06:58:00.996Z,96.54
2018-06-22T07:00:33.369Z,96.54
2018-06-22T07:03:04.270Z,97.23
2018-06-22T07:05:34.303Z,96.72
2018-06-22T07:08:03.875Z,97.01
2018-06-22T07:10:33.289Z,97.37
2018-06-22T07:13:03.335Z,96.66
2018-06-22T07:15:40.553Z,95.67
2018-06-22T07:18:10.927Z,96.00
2018-06-22T07:20:41.868Z,96.88
2018-06-22T07:23:12.013Z,97.06
2018-06-22T07:25:41.557Z,96.71
2018-06-22T07:28:11.405Z,96.34
2018-06-22T07:30:42.616Z,97.40
2018-06-22T07:33:12.655Z,96.33
2018-06-22T07:35:42.622Z,96.47
2018-06-22T07:38:12.568Z,97.37
2018-06-22T07:40:43.593Z,97.29
2018-06-22T07:43:13.116Z,97.76
2018-06-22T07:45:42.867Z,97.39
2018-06-22T07:48:13.068Z,96.86
2018-06-22T07:50:42.548Z,97.03
2018-06-22T07:53:12.033Z,97.15
2018-06-22T07:55:41.449Z,96.86
2018-06-22T07:58:10.979Z,97.33
2018-06-22T08:00:40.389Z,96.99
2018-06-22T08:03:09.999Z,96.11
2018-06-22T08:05:39.459Z,93.76
2018-06-22T08:08:09.567Z,94.54
2018-06-22T08:10:39.230Z,94.35
2018-06-22T08:13:08.685Z,93.40
2018-06-22T08:15:38.199Z,90.27
2018-06-22T08:18:07.830Z,91.68
2018-06-22T08:20:37.771Z,89.64
2018-06-22T08:23:07.227Z,91.05
2018-06-22T08:25:36.619Z,91.94
2018-06-22T08:28:06.897Z,91.39
2018-06-22T08:30:36.498Z,90.61
2018-06-22T08:33:06.250Z,91.34
2018-06-22T08:35:35.729Z,91.56
2018-06-22T08:38:06.157Z,92.07
2018-06-22T08:40:35.642Z,86.24
2018-06-22T08:43:05.097Z,87.58
2018-06-22T08:45:34.280Z,87.39
2018-06-22T08:48:04.497Z,85.40
2018-06-22T08:50:34.079Z,84.84
2018-06-22T08:53:03.613Z,86.14
2018-06-22T08:55:33.072Z,80.49
2018-06-22T08:58:02.701Z,81.71
2018-06-22T09:00:32.301Z,81.83
2018-06-22T09:03:01.844Z,79.32
2018-06-22T09:05:31.792Z,79.94
2018-06-22T09:08:01.522Z,77.51
2018-06-22T09:10:31.068Z,73.63
2018-06-22T09:13:00.924Z,73.41
2018-06-22T09:15:31.013Z,73.26
2018-06-22T09:18:00.441Z,76.40
2018-06-22T09:20:29.685Z,77.89
2018-06-22T09:22:59.192Z,79.96
2018-06-22T09:25:28.697Z,76.67
2018-06-22T09:27:58.236Z,77.25
2018-06-22T09:30:28.468Z,77.64
2018-06-22T09:32:58.028Z,72.40
2018-06-22T09:35:27.586Z,70.52
2018-06-22T09:37:57.075Z,68.16
2018-06-22T09:40:27.085Z,68.53
2018-06-22T09:42:56.646Z,66.83
2018-06-22T09:45:26.094Z,68.21
2018-06-22T09:47:55.785Z,65.50
2018-06-22T09:50:25.373Z,65.37
2018-06-22T09:52:54.881Z,63.75
2018-06-22T09:55:24.310Z,65.23
2018-06-22T09:57:53.745Z,66.14
2018-06-22T10:00:23.169Z,65.33
2018-06-22T10:02:53.274Z,64.42
2018-06-22T10:05:22.726Z,64.08
2018-06-22T10:07:52.219Z,62.29
2018-06-22T10:10:22.441Z,65.17
2018-06-22T10:12:52.409Z,63.89
2018-06-22T10:15:22.291Z,61.77
2018-06-22T10:17:51.822Z,58.81
2018-06-22T10:20:21.606Z,59.62
2018-06-22T10:22:51.139Z,60.01
2018-06-22T10:25:21.790Z,60.69
2018-06-22T10:27:51.385Z,58.62
2018-06-22T10:30:20.885Z,56.60
2018-06-22T10:32:50.390Z,58.50
2018-06-22T10:35:20.022Z,57.93
2018-06-22T10:37:49.566Z,58.61
2018-06-22T10:40:18.729Z,58.77
2018-06-22T10:42:48.147Z,59.27
2018-06-22T10:45:17.851Z,60.60
2018-06-22T10:47:47.946Z,59.66
2018-06-22T10:50:17.482Z,59.41
2018-06-22T10:52:47.270Z,57.15
2018-06-22T10:55:16.888Z,58.73
2018-06-22T10:57:46.425Z,59.28
2018-06-22T11:00:15.614Z,60.60
2018-06-22T11:02:45.063Z,61.37
2018-06-22T11:05:14.582Z,57.98
2018-06-22T11:07:44.112Z,56.61
2018-06-22T11:10:13.538Z,56.39
2018-06-22T11:12:43.098Z,57.66
2018-06-22T11:15:12.756Z,57.28
2018-06-22T11:17:42.223Z,54.12
2018-06-22T11:20:12.134Z,53.75
2018-06-22T11:22:42.177Z,53.80
2018-06-22T11:25:11.987Z,55.52
2018-06-22T11:27:41.390Z,54.61
2018-06-22T11:30:10.917Z,52.83
2018-06-22T11:32:40.614Z,53.97
2018-06-22T11:35:10.114Z,55.06
2018-06-22T11:37:39.701Z,55.50
2018-06-22T11:40:09.648Z,54.49
2018-06-22T11:42:39.106Z,55.06
2018-06-22T11:45:08.832Z,54.94
2018-06-22T11:47:38.457Z,53.52
2018-06-22T11:50:08.774Z,50.96
2018-06-22T11:52:38.205Z,51.59
2018-06-22T11:55:07.675Z,53.11
2018-06-22T11:57:37.324Z,52.82
2018-06-22T12:00:07.940Z,52.81
2018-06-22T12:02:37.482Z,52.57
2018-06-22T12:05:06.683Z,52.53
2018-06-22T12:07:36.138Z,50.73
2018-06-22T12:10:05.856Z,50.60
2018-06-22T12:12:35.441Z,48.83
2018-06-22T12:15:05.042Z,51.01
2018-06-22T12:17:35.280Z,50.10
2018-06-22T12:20:04.792Z,52.56
2018-06-22T12:22:34.709Z,54.93
2018-06-22T12:25:04.170Z,56.80
2018-06-22T12:27:33.696Z,58.94
2018-06-22T12:30:03.147Z,57.07
2018-06-22T12:32:33.124Z,56.26
2018-06-22T12:35:02.981Z,52.85
2018-06-22T12:37:32.453Z,49.76
2018-06-22T12:40:01.986Z,50.33
2018-06-22T12:42:31.605Z,53.50
2018-06-22T12:45:01.115Z,52.03
2018-06-22T12:47:31.274Z,52.48
2018-06-22T12:50:01.813Z,47.35
2018-06-22T12:52:31.383Z,48.72
2018-06-22T12:55:02.596Z,51.10
2018-06-22T12:57:32.979Z,49.91
2018-06-22T13:00:03.339Z,51.38
2018-06-22T13:02:33.894Z,49.27
2018-06-22T13:05:04.306Z,50.48
2018-06-22T13:07:33.827Z,49.13
2018-06-22T13:10:03.768Z,50.55
2018-06-22T13:12:33.354Z,49.32
2018-06-22T13:15:04.502Z,49.60
2018-06-22T13:17:33.901Z,51.36
2018-06-22T13:20:04.958Z,53.60
2018-06-22T13:22:34.473Z,52.87
2018-06-22T13:25:04.274Z,48.69
2018-06-22T13:27:33.662Z,47.29
2018-06-22T13:30:03.618Z,46.20
2018-06-22T13:32:33.267Z,47.71
2018-06-22T13:35:03.449Z,48.16
2018-06-22T13:37:32.849Z,50.40
2018-06-22T13:40:04.032Z,49.84
2018-06-22T13:42:33.935Z,47.65
2018-06-22T13:45:03.273Z,47.12
2018-06-22T13:47:33.606Z,43.44
2018-06-22T13:50:03.177Z,44.11
2018-06-22T13:52:32.429Z,44.48
2018-06-22T13:55:01.997Z,49.14
2018-06-22T13:57:31.549Z,50.88
2018-06-22T14:00:01.233Z,50.84
2018-06-22T14:02:30.946Z,49.24
2018-06-22T14:05:05.903Z,49.31
2018-06-22T14:07:35.580Z,51.84
2018-06-22T14:10:05.337Z,53.62
2018-06-22T14:12:35.233Z,52.38
2018-06-22T14:15:05.327Z,51.03
2018-06-22T14:17:35.307Z,47.04
2018-06-22T14:20:04.517Z,47.19
2018-06-22T14:22:34.287Z,45.13
2018-06-22T14:25:03.834Z,43.62
2018-06-22T14:27:33.945Z,43.03
2018-06-22T14:30:05.972Z,44.56
2018-06-22T14:32:36.560Z,46.54
2018-06-22T14:35:07.039Z,48.21
2018-06-22T14:37:36.560Z,44.40
2018-06-22T14:40:07.680Z,44.18
2018-06-22T14:42:37.277Z,42.32
2018-06-22T14:45:07.293Z,43.33
2018-06-22T14:47:36.758Z,43.60
2018-06-22T14:50:10.392Z,39.82
2018-06-22T14:52:39.905Z,39.16
2018-06-22T14:55:14.996Z,38.54
2018-06-22T14:57:49.551Z,42.61
2018-06-22T15:00:25.338Z,46.57
2018-06-22T15:03:00.253Z,48.96
2018-06-22T15:05:35.157Z,49.80
2018-06-22T15:08:06.008Z,52.91
2018-06-22T15:10:35.672Z,54.76
2018-06-22T15:13:05.161Z,54.95
2018-06-22T15:15:35.871Z,52.17
2018-06-22T15:18:06.008Z,51.96
2018-06-22T15:20:35.729Z,54.52
2018-06-22T15:23:05.339Z,55.04
2018-06-22T15:25:35.743Z,56.33
2018-06-22T15:28:05.825Z,56.42
2018-06-22T15:30:35.532Z,56.32
2018-06-22T15:33:09.749Z,53.01
2018-06-22T15:35:44.661Z,52.95
2018-06-22T15:38:19.381Z,53.75
2018-06-22T15:40:54.081Z,54.57
2018-06-22T15:43:28.743Z,55.34
2018-06-22T15:46:04.330Z,59.15
2018-06-22T15:48:44.925Z,63.74
2018-06-22T15:51:19.854Z,69.62
2018-06-22T15:53:56.182Z,70.28
2018-06-22T15:56:27.325Z,69.44
2018-06-22T15:58:57.167Z,67.43
2018-06-22T16:01:26.766Z,67.52
2018-06-22T16:03:58.097Z,66.47
2018-06-22T16:06:29.195Z,64.98
2018-06-22T16:08:58.844Z,63.06
2018-06-22T16:11:30.252Z,63.11
2018-06-22T16:14:05.090Z,64.75
2018-06-22T16:16:39.989Z,65.61
2018-06-22T16:19:14.867Z,66.16
2018-06-22T16:21:49.304Z,67.19
2018-06-22T16:24:24.755Z,67.73
2018-06-22T16:26:59.467Z,67.16
2018-06-22T16:29:29.300Z,66.61
2018-06-22T16:31:58.795Z,68.20
2018-06-22T16:34:28.228Z,68.01
2018-06-22T16:36:57.460Z,68.57
2018-06-22T16:39:27.010Z,71.69
2018-06-22T16:41:56.510Z,72.67
2018-06-22T16:44:26.015Z,71.18
2018-06-22T16:46:55.621Z,70.75
2018-06-22T16:49:26.330Z,70.97
2018-06-22T16:51:55.954Z,71.96
2018-06-22T16:54:25.407Z,72.12
2018-06-22T16:56:55.249Z,72.58
2018-06-22T16:59:24.750Z,72.92
2018-06-22T17:01:54.210Z,73.53
2018-06-22T17:04:23.808Z,73.46
2018-06-22T17:06:58.515Z,73.62
2018-06-22T17:10:31.299Z,73.11
2018-06-22T17:13:06.126Z,73.46
2018-06-22T17:15:40.895Z,73.12
2018-06-22T17:18:15.686Z,73.13
2018-06-22T17:20:45.191Z,72.86
2018-06-22T17:23:14.605Z,72.83
2018-06-22T17:25:44.239Z,72.40
2018-06-22T17:28:13.642Z,72.36
2018-06-22T17:30:43.461Z,72.70
2018-06-22T17:33:13.068Z,72.65
2018-06-22T17:35:42.538Z,72.72
2018-06-22T17:38:12.198Z,71.47
2018-06-22T17:40:41.774Z,71.40
2018-06-22T17:43:11.508Z,70.85
2018-06-22T17:45:40.992Z,71.34
2018-06-22T17:48:10.510Z,71.29
2018-06-22T17:50:39.990Z,71.97
2018-06-22T17:53:09.428Z,72.66
2018-06-22T17:55:38.997Z,73.50
2018-06-22T17:58:08.489Z,73.42
2018-06-22T18:00:43.065Z,73.24
2018-06-22T18:03:17.764Z,72.96
2018-06-22T18:05:52.589Z,73.59
2018-06-22T18:08:27.386Z,73.54
2018-06-22T18:11:02.100Z,74.53
2018-06-22T18:13:33.327Z,75.00
2018-06-22T18:16:02.809Z,74.21
2018-06-22T18:18:32.342Z,75.36
2018-06-22T18:21:01.843Z,75.48
2018-06-22T18:23:32.284Z,76.31
2018-06-22T18:26:01.780Z,77.15
2018-06-22T18:28:31.510Z,78.72
2018-06-22T18:31:01.685Z,79.12
2018-06-22T18:33:31.298Z,79.27
2018-06-22T18:36:01.414Z,79.70
2018-06-22T18:38:30.957Z,80.58
2018-06-22T18:41:00.713Z,80.37
2018-06-22T18:43:35.396Z,80.43
2018-06-22T18:46:05.046Z,81.71
2018-06-22T18:48:34.935Z,82.23
2018-06-22T18:51:04.500Z,82.62
2018-06-22T18:53:39.127Z,82.04
2018-06-22T18:56:18.674Z,82.30
2018-06-22T18:58:53.491Z,81.68
2018-06-22T19:01:28.641Z,81.45
2018-06-22T19:03:58.935Z,81.49
2018-06-22T19:06:29.181Z,81.06
2018-06-22T19:08:58.678Z,81.87
2018-06-22T19:11:29.532Z,82.46
2018-06-22T19:13:59.063Z,81.84
2018-06-22T19:16:28.546Z,81.86
2018-06-22T19:18:57.993Z,81.54
2018-06-22T19:21:27.577Z,81.69
2018-06-22T19:23:57.125Z,82.18
2018-06-22T19:26:27.917Z,82.69
2018-06-22T19:28:57.790Z,82.94
2018-06-22T19:31:27.276Z,82.94
2018-06-22T19:33:56.721Z,82.47
2018-06-22T19:36:26.342Z,82.20
2018-06-22T19:38:55.974Z,82.44
2018-06-22T19:41:25.689Z,81.45
2018-06-22T19:44:00.362Z,81.60
2018-06-22T19:46:35.826Z,81.63
2018-06-22T19:49:10.775Z,80.96
2018-06-22T19:51:45.509Z,81.37
2018-06-22T19:54:15.539Z,81.39
2018-06-22T19:56:45.192Z,81.82
2018-06-22T19:59:14.813Z,81.60
2018-06-22T20:01:45.471Z,82.11
2018-06-22T20:04:14.950Z,83.45
2018-06-22T20:06:44.381Z,83.51
2018-06-22T20:09:13.909Z,83.81
2018-06-22T20:11:43.737Z,84.05
2018-06-22T20:14:13.478Z,84.29
2018-06-22T20:16:42.649Z,83.62
2018-06-22T20:19:13.182Z,83.87
2018-06-22T20:21:42.739Z,83.17
2018-06-22T20:24:12.331Z,83.72
2018-06-22T20:26:41.779Z,83.35
2018-06-22T20:29:11.263Z,83.56
2018-06-22T20:31:41.168Z,83.33
2018-06-22T20:34:16.025Z,83.23
2018-06-22T20:36:51.053Z,82.93
2018-06-22T20:39:25.830Z,82.77
2018-06-22T20:42:00.528Z,82.30
2018-06-22T20:44:35.407Z,82.15
2018-06-22T20:48:11.237Z,82.02
2018-06-22T20:50:40.927Z,81.53
2018-06-22T20:53:10.756Z,81.04
2018-06-22T20:55:40.949Z,81.24
2018-06-22T20:58:11.810Z,81.11
2018-06-22T21:00:41.284Z,81.37
2018-06-22T21:03:10.966Z,81.30
2018-06-22T21:05:40.265Z,81.35
2018-06-22T21:08:09.510Z,80.75
2018-06-22T21:10:40.281Z,81.19
2018-06-22T21:13:10.868Z,80.54
2018-06-22T21:15:40.996Z,79.82
2018-06-22T21:18:11.330Z,79.28
2018-06-22T21:20:46.324Z,78.93
2018-06-22T21:23:15.919Z,79.29
2018-06-22T21:25:45.828Z,79.12
2018-06-22T21:28:20.610Z,78.70
2018-06-22T21:30:55.498Z,78.31
2018-06-22T21:33:29.798Z,77.20
2018-06-22T21:37:02.301Z,77.73
2018-06-22T21:39:31.603Z,77.77
2018-06-22T21:42:01.231Z,77.17
2018-06-22T21:44:31.004Z,77.61
2018-06-22T21:47:01.693Z,77.15
2018-06-22T21:49:31.323Z,77.57
2018-06-22T21:52:00.960Z,77.00
2018-06-22T21:54:30.448Z,77.55
2018-06-22T21:56:59.911Z,76.96
2018-06-22T21:59:29.463Z,77.14
2018-06-22T22:01:58.959Z,76.10
2018-06-22T22:04:28.551Z,76.16
2018-06-22T22:06:58.398Z,76.86
2018-06-22T22:09:32.807Z,76.62
2018-06-22T22:12:04.405Z,76.21
2018-06-22T22:14:33.947Z,76.24
2018-06-22T22:17:04.796Z,75.91
2018-06-22T22:19:34.524Z,76.03
2018-06-22T22:22:04.334Z,75.42
2018-06-22T22:24:34.359Z,75.65
2018-06-22T22:27:04.576Z,76.12
2018-06-22T22:29:35.425Z,75.63
2018-06-22T22:32:04.905Z,74.89
2018-06-22T22:34:35.094Z,75.59
2018-06-22T22:37:05.687Z,74.84
2018-06-22T22:39:35.100Z,74.76
2018-06-22T22:42:04.587Z,74.66
2018-06-22T22:44:34.174Z,75.03
2018-06-22T22:47:03.702Z,74.66
2018-06-22T22:49:33.992Z,74.73
2018-06-22T22:52:03.880Z,74.92
2018-06-22T22:54:33.727Z,74.87
2018-06-22T22:57:04.672Z,75.26
2018-06-22T22:59:39.741Z,74.93
2018-06-22T23:02:10.231Z,74.40
2018-06-22T23:04:41.738Z,74.23
2018-06-22T23:07:12.176Z,74.83
2018-06-22T23:09:41.572Z,74.09
2018-06-22T23:12:12.020Z,74.59
2018-06-22T23:14:43.076Z,74.32
2018-06-22T23:17:15.625Z,74.76
2018-06-22T23:19:44.807Z,74.53
2018-06-22T23:22:15.240Z,74.77
2018-06-22T23:24:46.042Z,74.27
2018-06-22T23:27:15.769Z,74.31
2018-06-22T23:29:45.271Z,73.81
2018-06-22T23:32:14.920Z,74.04
2018-06-22T23:34:44.220Z,74.83
2018-06-22T23:37:13.744Z,74.68
2018-06-22T23:39:43.896Z,74.59
2018-06-22T23:42:13.806Z,74.60
2018-06-22T23:44:43.338Z,74.91
2018-06-22T23:47:13.252Z,74.66
2018-06-22T23:49:43.179Z,75.05
2018-06-22T23:52:12.971Z,74.76
2018-06-22T23:54:43.409Z,75.39
2018-06-22T23:57:13.283Z,74.96
2018-06-22T23:59:43.278Z,75.40
